Terminal Aerodrome Forecast
Issued by NWS Quad Cities IA IL

Home | Current Version | Previous Version | Text Only | Print | Product List | Glossary On
Versions: 1 2 3 4 5 6 7 8 9 10 11 12 13 14 15 16 17 18 19 20
000
FTUS43 KDVN 111552 AAB
TAFDBQ
TAF AMD
KDBQ 111552Z 1116/1212 18008KT P6SM BKN080
     FM111900 22008KT P6SM BKN035
      TEMPO 1119/1121 4SM -SHSN BKN025
     FM112100 30014G22KT P6SM OVC025
     FM120000 33023G32KT P6SM OVC030
     FM120700 33017G24KT P6SM SCT030=

USA.gov is the U.S. government's official web portal to all federal, state and local government web resources and services.